Time;durP1;ratioP1;P1;durP2;ratioP2;P2;SDS_P1;SDS_P2;PMS_P1;PMS_P2;Temp;Humidity;BMP_temperature;BMP_pressure;BME280_temperature;BME280_humidity;BME280_pressure;Samples;Min_cycle;Max_cycle;Signal;HPM_P1;HPM_P2
2024/03/03 00:01:51;;;;;;;;;;;;;;;;;;5050431;28;4613;-51
2024/03/03 00:04:16;;;;;;;;;;;;;;;;;;5052125;28;5006;-49
2024/03/03 00:06:42;;;;;;;;;;;;;;;;;;5027397;28;4950;-50
2024/03/03 00:09:07;;;;;;;;;;;;;;;;;;5031987;28;4854;-53
2024/03/03 00:11:34;;;;;;;;;;;;;;;;;;5031064;28;1390;-56
2024/03/03 00:13:59;;;;;;;;;;;;;;;;;;5024246;28;4617;-51
2024/03/03 00:16:24;;;;;;;;;;;;;;;;;;5026920;28;4659;-50
2024/03/03 00:18:50;;;;;;;;;;;;;;;;;;5033971;28;4451;-47
2024/03/03 00:21:15;;;;;;;;;;;;;;;;;;5030648;28;5103;-51
2024/03/03 00:23:40;;;;;;;;;;;;;;;;;;5036301;28;3544;-49
2024/03/03 00:26:06;;;;;;;;;;;;;;;;;;5036778;28;4561;-49
2024/03/03 00:28:31;;;;;;;;;;;;;;;;;;5034525;28;4573;-49
2024/03/03 00:30:56;;;;;;;;;;;;;;;;;;5023714;28;5183;-53
2024/03/03 00:33:22;;;;;;;;;;;;;;;;;;5029630;28;4588;-51
2024/03/03 00:35:47;;;;;;;;;;;;;;;;;;5032311;28;3319;-51
2024/03/03 00:38:12;;;;;;;;;;;;;;;;;;5027371;28;4832;-52
2024/03/03 00:40:38;;;;;;;;;;;;;;;;;;5026920;28;4937;-53
2024/03/03 00:43:03;;;;;;;;;;;;;;;;;;5004094;28;4506;-54
2024/03/03 00:45:30;;;;;;;;;;;;;;;;;;5021977;28;5092;-50
2024/03/03 00:47:55;;;;;;;;;;;;;;;;;;5019200;28;5199;-52
2024/03/03 00:50:21;;;;;;;;;;;;;;;;;;5021591;28;3649;-50
2024/03/03 00:52:46;;;;;;;;;;;;;;;;;;5024539;28;5178;-49
2024/03/03 00:55:12;;;;;;;;;;;;;;;;;;5027353;28;4594;-51
2024/03/03 00:57:37;;;;;;;;;;;;;;;;;;5032963;28;5964;-53
2024/03/03 01:00:03;;;;;;;;;;;;;;;;;;5022026;28;5116;-52
2024/03/03 01:02:28;;;;;;;;;;;;;;;;;;5028407;28;3317;-55
2024/03/03 01:04:54;;;;;;;;;;;;;;;;;;5029049;28;5676;-54
2024/03/03 01:07:19;;;;;;;;;;;;;;;;;;5046697;28;4488;-47
2024/03/03 01:09:44;;;;;;;;;;;;;;;;;;5059071;28;4540;-48
2024/03/03 01:12:10;;;;;;;;;;;;;;;;;;5041672;28;5052;-47
2024/03/03 01:14:35;;;;;;;;;;;;;;;;;;5051552;28;3439;-54
2024/03/03 01:17:00;;;;;;;;;;;;;;;;;;5061602;28;4623;-48
2024/03/03 01:19:26;;;;;;;;;;;;;;;;;;5041212;28;5117;-50
2024/03/03 01:21:51;;;;;;;;;;;;;;;;;;5041826;28;5050;-49
2024/03/03 01:24:16;;;;;;;;;;;;;;;;;;5044752;28;5123;-49
2024/03/03 01:26:42;;;;;;;;;;;;;;;;;;5050280;28;3505;-52
2024/03/03 01:29:07;;;;;;;;;;;;;;;;;;5045369;28;4949;-49
2024/03/03 01:31:32;;;;;;;;;;;;;;;;;;5052341;28;5033;-48
2024/03/03 01:33:58;;;;;;;;;;;;;;;;;;5049843;28;4786;-48
2024/03/03 01:36:23;;;;;;;;;;;;;;;;;;5054763;28;4978;-51
2024/03/03 01:38:48;;;;;;;;;;;;;;;;;;5053758;28;3084;-53
2024/03/03 01:41:13;;;;;;;;;;;;;;;;;;5041708;28;4916;-55
2024/03/03 01:43:41;;;;;;;;;;;;;;;;;;5044925;28;5416;-54
2024/03/03 01:46:06;;;;;;;;;;;;;;;;;;5047894;28;5146;-51
2024/03/03 01:48:34;;;;;;;;;;;;;;;;;;5023238;28;5053;-52
2024/03/03 01:50:59;;;;;;;;;;;;;;;;;;5054115;28;5008;-53
2024/03/03 01:53:24;;;;;;;;;;;;;;;;;;5054073;28;3272;-52
2024/03/03 01:55:50;;;;;;;;;;;;;;;;;;5050116;28;4564;-58
2024/03/03 01:58:15;;;;;;;;;;;;;;;;;;5039502;28;4606;-55
2024/03/03 02:00:41;;;;;;;;;;;;;;;;;;5046299;28;5202;-48
2024/03/03 02:03:07;;;;;;;;;;;;;;;;;;5054203;28;5071;-56
2024/03/03 02:05:33;;;;;;;;;;;;;;;;;;5050315;28;3400;-49
2024/03/03 02:07:59;;;;;;;;;;;;;;;;;;5036891;28;5281;-51
2024/03/03 02:10:24;;;;;;;;;;;;;;;;;;5036231;28;5109;-51
2024/03/03 02:12:51;;;;;;;;;;;;;;;;;;5030558;28;5128;-51
2024/03/03 02:15:16;;;;;;;;;;;;;;;;;;5031306;28;4619;-52
2024/03/03 02:17:41;;;;;;;;;;;;;;;;;;5034914;28;3467;-52
2024/03/03 02:20:08;;;;;;;;;;;;;;;;;;5030788;28;5173;-50
2024/03/03 02:22:35;;;;;;;;;;;;;;;;;;5028621;28;5012;-51
2024/03/03 02:25:00;;;;;;;;;;;;;;;;;;5027049;28;5462;-52
2024/03/03 02:27:25;;;;;;;;;;;;;;;;;;5029119;28;5021;-52
2024/03/03 02:29:51;;;;;;;;;;;;;;;;;;5054065;28;3321;-52
2024/03/03 02:32:16;;;;;;;;;;;;;;;;;;5038526;28;4942;-53
2024/03/03 02:34:41;;;;;;;;;;;;;;;;;;5032862;28;5217;-49
2024/03/03 02:37:07;;;;;;;;;;;;;;;;;;5036936;28;4973;-50
2024/03/03 02:39:34;;;;;;;;;;;;;;;;;;5039892;28;5198;-52
2024/03/03 02:41:59;;;;;;;;;;;;;;;;;;5032559;28;5222;-54
2024/03/03 02:44:24;;;;;;;;;;;;;;;;;;5028858;28;1342;-48
2024/03/03 02:46:50;;;;;;;;;;;;;;;;;;5010400;28;4641;-57
2024/03/03 02:49:15;;;;;;;;;;;;;;;;;;5031200;28;5236;-52
2024/03/03 02:51:41;;;;;;;;;;;;;;;;;;5038944;28;5428;-52
2024/03/03 02:54:06;;;;;;;;;;;;;;;;;;5035109;28;4714;-52
2024/03/03 02:56:31;;;;;;;;;;;;;;;;;;5037734;28;1997;-54
2024/03/03 02:58:57;;;;;;;;;;;;;;;;;;5036978;28;4846;-53
2024/03/03 03:01:22;;;;;;;;;;;;;;;;;;5039533;28;4985;-48
2024/03/03 03:03:47;;;;;;;;;;;;;;;;;;5029439;28;5149;-53
2024/03/03 03:06:13;;;;;;;;;;;;;;;;;;5040803;28;4790;-54
2024/03/03 03:08:38;;;;;;;;;;;;;;;;;;5053954;28;2461;-52
2024/03/03 03:11:04;;;;;;;;;;;;;;;;;;5051022;28;5067;-53
2024/03/03 03:13:29;;;;;;;;;;;;;;;;;;5048560;28;4550;-48
2024/03/03 03:15:55;;;;;;;;;;;;;;;;;;5053916;28;4569;-53
2024/03/03 03:18:20;;;;;;;;;;;;;;;;;;5050259;28;4490;-51
2024/03/03 03:20:45;;;;;;;;;;;;;;;;;;5064753;28;3661;-51
2024/03/03 03:23:11;;;;;;;;;;;;;;;;;;5051125;28;5090;-51
2024/03/03 03:25:36;;;;;;;;;;;;;;;;;;5050789;28;5017;-49
2024/03/03 03:28:01;;;;;;;;;;;;;;;;;;5054690;28;5047;-48
2024/03/03 03:30:27;;;;;;;;;;;;;;;;;;5064114;28;5160;-54
2024/03/03 03:32:52;;;;;;;;;;;;;;;;;;5060423;28;1088;-55
2024/03/03 03:35:17;;;;;;;;;;;;;;;;;;5029180;28;4616;-51
2024/03/03 03:37:43;;;;;;;;;;;;;;;;;;5051728;28;5597;-50
2024/03/03 03:40:09;;;;;;;;;;;;;;;;;;5057034;28;5038;-53
2024/03/03 03:42:35;;;;;;;;;;;;;;;;;;5047698;28;4954;-52
2024/03/03 03:45:00;;;;;;;;;;;;;;;;;;5051460;28;5047;-48
2024/03/03 03:47:26;;;;;;;;;;;;;;;;;;5048039;28;3188;-49
2024/03/03 03:49:51;;;;;;;;;;;;;;;;;;5050260;28;4875;-50
2024/03/03 03:52:16;;;;;;;;;;;;;;;;;;5028463;28;4514;-50
2024/03/03 03:54:42;;;;;;;;;;;;;;;;;;5034400;28;5588;-50
2024/03/03 03:57:07;;;;;;;;;;;;;;;;;;5050775;28;4857;-50
2024/03/03 03:59:32;;;;;;;;;;;;;;;;;;5055532;28;1168;-55
2024/03/03 04:02:03;;;;;;;;;;;;;;;;;;5053375;28;4869;-51
2024/03/03 04:04:28;;;;;;;;;;;;;;;;;;5057301;28;4954;-52
2024/03/03 04:06:54;;;;;;;;;;;;;;;;;;5038912;28;5120;-53
2024/03/03 04:09:19;;;;;;;;;;;;;;;;;;5034280;28;4520;-64
2024/03/03 04:11:44;;;;;;;;;;;;;;;;;;5042701;28;2282;-51
2024/03/03 04:14:10;;;;;;;;;;;;;;;;;;5035608;28;5165;-48
2024/03/03 04:16:35;;;;;;;;;;;;;;;;;;5032902;28;5194;-53
2024/03/03 04:19:00;;;;;;;;;;;;;;;;;;5032776;28;5134;-49
2024/03/03 04:21:26;;;;;;;;;;;;;;;;;;5037205;28;5076;-52
2024/03/03 04:23:51;;;;;;;;;;;;;;;;;;5043791;28;3297;-49
2024/03/03 04:26:16;;;;;;;;;;;;;;;;;;5033805;28;5579;-50
2024/03/03 04:28:42;;;;;;;;;;;;;;;;;;5030171;28;4979;-58
2024/03/03 04:31:07;;;;;;;;;;;;;;;;;;5031882;28;5053;-51
2024/03/03 04:33:33;;;;;;;;;;;;;;;;;;5041774;28;5069;-53
2024/03/03 04:35:59;;;;;;;;;;;;;;;;;;5029421;28;4687;-58
2024/03/03 04:38:24;;;;;;;;;;;;;;;;;;5036410;28;1446;-53
2024/03/03 04:40:49;;;;;;;;;;;;;;;;;;5030082;28;5990;-50
2024/03/03 04:43:15;;;;;;;;;;;;;;;;;;5028456;28;5305;-54
2024/03/03 04:45:40;;;;;;;;;;;;;;;;;;5019480;28;4557;-62
2024/03/03 04:48:05;;;;;;;;;;;;;;;;;;5026004;28;5061;-50
2024/03/03 04:50:31;;;;;;;;;;;;;;;;;;5037395;28;3278;-46
2024/03/03 04:52:56;;;;;;;;;;;;;;;;;;5030301;28;5024;-52
2024/03/03 04:55:21;;;;;;;;;;;;;;;;;;5031698;28;4713;-48
2024/03/03 04:57:47;;;;;;;;;;;;;;;;;;5028632;28;5074;-56
2024/03/03 05:00:12;;;;;;;;;;;;;;;;;;5027116;28;5331;-55
2024/03/03 05:02:39;;;;;;;;;;;;;;;;;;5037375;28;3832;-51
2024/03/03 05:05:05;;;;;;;;;;;;;;;;;;5029885;28;5081;-48
2024/03/03 05:07:31;;;;;;;;;;;;;;;;;;5023805;28;4871;-52
2024/03/03 05:09:56;;;;;;;;;;;;;;;;;;5027366;28;5266;-59
2024/03/03 05:12:21;;;;;;;;;;;;;;;;;;5032293;28;4917;-48
2024/03/03 05:14:47;;;;;;;;;;;;;;;;;;5031316;28;3475;-52
2024/03/03 05:17:12;;;;;;;;;;;;;;;;;;5027885;28;4968;-51
2024/03/03 05:19:38;;;;;;;;;;;;;;;;;;5034503;28;4567;-47
2024/03/03 05:22:04;;;;;;;;;;;;;;;;;;5031780;28;4533;-54
2024/03/03 05:24:29;;;;;;;;;;;;;;;;;;5035937;28;5078;-53
2024/03/03 05:26:55;;;;;;;;;;;;;;;;;;5031938;28;5291;-60
2024/03/03 05:29:20;;;;;;;;;;;;;;;;;;5040715;28;3492;-53
2024/03/03 05:31:45;;;;;;;;;;;;;;;;;;5034568;28;5078;-51
2024/03/03 05:34:15;;;;;;;;;;;;;;;;;;5037807;28;5036;-49
2024/03/03 05:36:40;;;;;;;;;;;;;;;;;;5033813;28;5000;-55
2024/03/03 05:39:06;;;;;;;;;;;;;;;;;;5034485;28;4656;-52
2024/03/03 05:41:31;;;;;;;;;;;;;;;;;;5037642;28;3486;-52
2024/03/03 05:43:57;;;;;;;;;;;;;;;;;;5030472;28;5051;-53
2024/03/03 05:46:22;;;;;;;;;;;;;;;;;;5035384;28;4887;-47
2024/03/03 05:48:47;;;;;;;;;;;;;;;;;;5038907;28;5220;-54
2024/03/03 05:51:13;;;;;;;;;;;;;;;;;;5031533;28;5067;-47
2024/03/03 05:53:38;;;;;;;;;;;;;;;;;;5034005;28;3403;-50
2024/03/03 05:56:04;;;;;;;;;;;;;;;;;;5017811;28;4856;-51
2024/03/03 05:58:29;;;;;;;;;;;;;;;;;;5029857;28;4880;-49
2024/03/03 06:00:54;;;;;;;;;;;;;;;;;;5032168;28;5114;-50
2024/03/03 06:03:20;;;;;;;;;;;;;;;;;;5035148;28;5089;-50
2024/03/03 06:05:45;;;;;;;;;;;;;;;;;;5043393;28;3404;-49
2024/03/03 06:08:10;;;;;;;;;;;;;;;;;;5043122;28;5102;-49
2024/03/03 06:10:36;;;;;;;;;;;;;;;;;;5040303;28;5813;-53
2024/03/03 06:13:01;;;;;;;;;;;;;;;;;;5043485;28;5383;-53
2024/03/03 06:15:26;;;;;;;;;;;;;;;;;;5055142;28;5013;-50
2024/03/03 06:17:52;;;;;;;;;;;;;;;;;;5050893;28;3345;-49
2024/03/03 06:20:17;;;;;;;;;;;;;;;;;;5043994;28;4810;-52
2024/03/03 06:22:42;;;;;;;;;;;;;;;;;;5038534;28;5155;-51
2024/03/03 06:25:09;;;;;;;;;;;;;;;;;;5044043;28;5957;-49
2024/03/03 06:27:34;;;;;;;;;;;;;;;;;;5041897;28;5073;-51
2024/03/03 06:29:59;;;;;;;;;;;;;;;;;;5046864;28;5144;-50
2024/03/03 06:32:25;;;;;;;;;;;;;;;;;;5048769;28;3244;-50
2024/03/03 06:34:50;;;;;;;;;;;;;;;;;;5050503;28;5117;-53
2024/03/03 06:37:17;;;;;;;;;;;;;;;;;;5047056;28;5008;-50
2024/03/03 06:39:44;;;;;;;;;;;;;;;;;;5042411;28;4516;-54
2024/03/03 06:42:09;;;;;;;;;;;;;;;;;;5049833;28;5061;-54
2024/03/03 06:44:34;;;;;;;;;;;;;;;;;;5043257;28;3527;-51
2024/03/03 06:47:00;;;;;;;;;;;;;;;;;;5051939;28;4519;-50
2024/03/03 06:49:25;;;;;;;;;;;;;;;;;;5045315;28;5053;-58
2024/03/03 06:51:50;;;;;;;;;;;;;;;;;;5043906;28;5117;-51
2024/03/03 06:54:16;;;;;;;;;;;;;;;;;;5046622;28;5254;-47
2024/03/03 06:56:41;;;;;;;;;;;;;;;;;;5059653;28;3300;-49
2024/03/03 06:59:06;;;;;;;;;;;;;;;;;;5053521;28;5101;-51
2024/03/03 07:01:32;;;;;;;;;;;;;;;;;;5058435;28;4662;-53
2024/03/03 07:06:41;;;;;;;;;;;;;;;;;;5053540;28;5235;-48
2024/03/03 07:09:08;;;;;;;;;;;;;;;;;;5046103;28;4607;-51
2024/03/03 07:11:33;;;;;;;;;;;;;;;;;;5032377;28;1311;-50
2024/03/03 07:13:58;;;;;;;;;;;;;;;;;;5050652;28;6008;-56
2024/03/03 07:16:24;;;;;;;;;;;;;;;;;;5047236;28;5301;-50
2024/03/03 07:18:49;;;;;;;;;;;;;;;;;;5058800;28;4879;-48
2024/03/03 07:21:14;;;;;;;;;;;;;;;;;;5053077;28;5052;-60
2024/03/03 07:23:40;;;;;;;;;;;;;;;;;;5054724;28;1124;-50
2024/03/03 07:26:05;;;;;;;;;;;;;;;;;;5052293;28;6246;-50
2024/03/03 07:28:31;;;;;;;;;;;;;;;;;;5053060;28;4481;-49
2024/03/03 07:30:57;;;;;;;;;;;;;;;;;;5053926;28;4684;-51
2024/03/03 07:33:22;;;;;;;;;;;;;;;;;;5057986;28;5305;-52
2024/03/03 07:35:47;;;;;;;;;;;;;;;;;;5049319;28;1981;-52
2024/03/03 07:38:14;;;;;;;;;;;;;;;;;;5051354;28;4592;-48
2024/03/03 07:40:39;;;;;;;;;;;;;;;;;;5049771;28;5274;-52
2024/03/03 07:43:05;;;;;;;;;;;;;;;;;;5045296;28;4902;-48
2024/03/03 07:45:30;;;;;;;;;;;;;;;;;;5052674;28;4484;-51
2024/03/03 07:47:55;;;;;;;;;;;;;;;;;;5057848;28;4457;-48
2024/03/03 07:50:21;;;;;;;;;;;;;;;;;;5052289;28;2378;-48
2024/03/03 07:52:46;;;;;;;;;;;;;;;;;;5054031;28;4439;-49
2024/03/03 07:55:12;;;;;;;;;;;;;;;;;;5058445;28;5016;-51
2024/03/03 07:57:37;;;;;;;;;;;;;;;;;;5056289;28;4988;-50
2024/03/03 08:00:06;;;;;;;;;;;;;;;;;;5050043;28;4554;-51
2024/03/03 08:02:31;;;;;;;;;;;;;;;;;;5051180;28;3303;-48
2024/03/03 08:04:56;;;;;;;;;;;;;;;;;;5053359;28;5002;-48
2024/03/03 08:07:22;;;;;;;;;;;;;;;;;;5052886;28;4901;-52
2024/03/03 08:09:47;;;;;;;;;;;;;;;;;;5042201;28;5175;-56
2024/03/03 08:12:13;;;;;;;;;;;;;;;;;;5045055;28;5223;-48
2024/03/03 08:14:38;;;;;;;;;;;;;;;;;;5045363;28;3305;-49
2024/03/03 08:17:03;;;;;;;;;;;;;;;;;;5063156;28;5055;-57
2024/03/03 08:19:29;;;;;;;;;;;;;;;;;;5053975;28;4921;-56
2024/03/03 08:21:56;;;;;;;;;;;;;;;;;;5055127;28;5071;-53
2024/03/03 08:24:21;;;;;;;;;;;;;;;;;;5062074;28;4606;-49
2024/03/03 08:26:47;;;;;;;;;;;;;;;;;;5058666;28;3395;-50
2024/03/03 08:29:13;;;;;;;;;;;;;;;;;;5051543;28;4613;-47
2024/03/03 08:31:41;;;;;;;;;;;;;;;;;;5051732;28;5065;-52
2024/03/03 08:34:07;;;;;;;;;;;;;;;;;;5052595;28;5044;-58
2024/03/03 08:36:32;;;;;;;;;;;;;;;;;;5055918;28;5124;-47
2024/03/03 08:38:57;;;;;;;;;;;;;;;;;;5055485;28;5474;-55
2024/03/03 08:41:23;;;;;;;;;;;;;;;;;;5056539;28;3181;-47
2024/03/03 08:43:48;;;;;;;;;;;;;;;;;;5047847;28;5103;-48
2024/03/03 08:46:13;;;;;;;;;;;;;;;;;;5047478;28;4582;-54
2024/03/03 08:48:39;;;;;;;;;;;;;;;;;;5047708;28;5148;-53
2024/03/03 08:51:08;;;;;;;;;;;;;;;;;;5049796;28;4996;-50
2024/03/03 08:53:33;;;;;;;;;;;;;;;;;;5062751;28;1154;-50
2024/03/03 08:55:59;;;;;;;;;;;;;;;;;;5063906;28;4465;-51
2024/03/03 08:58:24;;;;;;;;;;;;;;;;;;5064158;28;5099;-51
2024/03/03 09:00:50;;;;;;;;;;;;;;;;;;5035456;28;5327;-50
2024/03/03 09:03:15;;;;;;;;;;;;;;;;;;5038138;28;4543;-58
2024/03/03 09:05:40;;;;;;;;;;;;;;;;;;5058322;28;3262;-52
2024/03/03 09:08:06;;;;;;;;;;;;;;;;;;5048698;28;4885;-53
2024/03/03 09:10:31;;;;;;;;;;;;;;;;;;5042332;28;5149;-51
2024/03/03 09:12:57;;;;;;;;;;;;;;;;;;5043689;28;5076;-50
2024/03/03 09:15:23;;;;;;;;;;;;;;;;;;5027649;28;4576;-47
2024/03/03 09:17:48;;;;;;;;;;;;;;;;;;5046403;28;3219;-55
2024/03/03 09:20:13;;;;;;;;;;;;;;;;;;5046285;28;4575;-50
2024/03/03 09:22:39;;;;;;;;;;;;;;;;;;5031804;28;5183;-54
2024/03/03 09:25:04;;;;;;;;;;;;;;;;;;5045307;28;5121;-48
2024/03/03 09:27:31;;;;;;;;;;;;;;;;;;5044006;28;5071;-57
2024/03/03 09:29:57;;;;;;;;;;;;;;;;;;5046660;28;4885;-60
2024/03/03 09:32:22;;;;;;;;;;;;;;;;;;5042147;28;3578;-57
2024/03/03 09:34:47;;;;;;;;;;;;;;;;;;5048774;28;4544;-58
2024/03/03 09:37:13;;;;;;;;;;;;;;;;;;5042196;28;5203;-62
2024/03/03 09:39:38;;;;;;;;;;;;;;;;;;5045825;28;4941;-62
2024/03/03 09:42:04;;;;;;;;;;;;;;;;;;5043791;28;4998;-60
2024/03/03 09:44:39;;;;;;;;;;;;;;;;;;5048054;28;3408;-57
2024/03/03 09:47:04;;;;;;;;;;;;;;;;;;5041559;28;4939;-58
2024/03/03 09:49:30;;;;;;;;;;;;;;;;;;5024210;28;5197;-59
2024/03/03 09:51:55;;;;;;;;;;;;;;;;;;5046950;28;4997;-60
2024/03/03 09:54:20;;;;;;;;;;;;;;;;;;5049358;28;4529;-61
2024/03/03 09:56:47;;;;;;;;;;;;;;;;;;5048283;28;1988;-61
2024/03/03 09:59:14;;;;;;;;;;;;;;;;;;5050483;28;4833;-59
2024/03/03 10:01:39;;;;;;;;;;;;;;;;;;5048955;28;4982;-60
2024/03/03 10:04:08;;;;;;;;;;;;;;;;;;5046259;28;5095;-59
2024/03/03 10:06:36;;;;;;;;;;;;;;;;;;5043232;28;4980;-62
2024/03/03 10:09:01;;;;;;;;;;;;;;;;;;5046050;28;5022;-61
2024/03/03 10:11:27;;;;;;;;;;;;;;;;;;5040020;28;3446;-59
2024/03/03 10:13:53;;;;;;;;;;;;;;;;;;5039783;28;4995;-57
2024/03/03 10:16:18;;;;;;;;;;;;;;;;;;5040531;28;5189;-59
2024/03/03 10:18:43;;;;;;;;;;;;;;;;;;5062619;28;4611;-57
2024/03/03 10:21:12;;;;;;;;;;;;;;;;;;5044260;28;4607;-59
2024/03/03 10:23:38;;;;;;;;;;;;;;;;;;5045366;28;3227;-60
2024/03/03 10:26:04;;;;;;;;;;;;;;;;;;5043942;28;4480;-65
2024/03/03 10:28:30;;;;;;;;;;;;;;;;;;5048803;28;4630;-64
2024/03/03 10:31:11;;;;;;;;;;;;;;;;;;5058104;28;5171;-65
2024/03/03 10:33:37;;;;;;;;;;;;;;;;;;5042980;28;5055;-66
2024/03/03 10:36:08;;;;;;;;;;;;;;;;;;5041268;28;5129;-67
2024/03/03 10:38:33;;;;;;;;;;;;;;;;;;5026157;28;3449;-66
2024/03/03 10:40:59;;;;;;;;;;;;;;;;;;5046394;28;4467;-65
2024/03/03 10:43:24;;;;;;;;;;;;;;;;;;5039932;28;5151;-66
2024/03/03 10:45:50;;;;;;;;;;;;;;;;;;5041853;28;5004;-66
2024/03/03 10:48:16;;;;;;;;;;;;;;;;;;5042379;28;5092;-66
2024/03/03 10:50:41;;;;;;;;;;;;;;;;;;5045492;28;3445;-66
2024/03/03 10:53:10;;;;;;;;;;;;;;;;;;5054269;28;4761;-66
2024/03/03 10:55:36;;;;;;;;;;;;;;;;;;5052877;28;5103;-66
2024/03/03 10:58:01;;;;;;;;;;;;;;;;;;5045799;28;4649;-65
2024/03/03 11:00:28;;;;;;;;;;;;;;;;;;5042609;28;4531;-64
2024/03/03 11:02:53;;;;;;;;;;;;;;;;;;5024201;28;4974;-63
2024/03/03 11:05:19;;;;;;;;;;;;;;;;;;5037606;28;3702;-65
2024/03/03 11:07:44;;;;;;;;;;;;;;;;;;5029325;28;5170;-65
2024/03/03 11:10:10;;;;;;;;;;;;;;;;;;5008090;28;5049;-66
2024/03/03 11:12:36;;;;;;;;;;;;;;;;;;5023443;28;5123;-66
2024/03/03 11:15:04;;;;;;;;;;;;;;;;;;5025140;28;4572;-67
2024/03/03 11:17:30;;;;;;;;;;;;;;;;;;5023073;28;3571;-67
2024/03/03 11:19:55;;;;;;;;;;;;;;;;;;5024071;28;5179;-65
2024/03/03 11:22:21;;;;;;;;;;;;;;;;;;5026270;28;5024;-65
2024/03/03 11:24:59;;;;;;;;;;;;;;;;;;5019639;28;4997;-64
2024/03/03 11:27:26;;;;;;;;;;;;;;;;;;5041646;28;5024;-66
2024/03/03 11:29:52;;;;;;;;;;;;;;;;;;5027034;28;1417;-66
2024/03/03 11:32:18;;;;;;;;;;;;;;;;;;5027513;28;4611;-60
2024/03/03 11:34:44;;;;;;;;;;;;;;;;;;5032570;28;5116;-61
2024/03/03 11:37:09;;;;;;;;;;;;;;;;;;5022466;28;5334;-60
2024/03/03 11:39:35;;;;;;;;;;;;;;;;;;5032936;28;5083;-59
2024/03/03 11:42:10;;;;;;;;;;;;;;;;;;5031496;28;4561;-58
2024/03/03 11:44:35;;;;;;;;;;;;;;;;;;5020197;28;3718;-58
2024/03/03 11:47:01;;;;;;;;;;;;;;;;;;5025585;28;5085;-58
2024/03/03 11:49:26;;;;;;;;;;;;;;;;;;5018208;28;5121;-64
2024/03/03 11:51:52;;;;;;;;;;;;;;;;;;5024807;28;4759;-58
2024/03/03 11:54:41;;;;;;;;;;;;;;;;;;5015592;28;5067;-58
2024/03/03 11:57:07;;;;;;;;;;;;;;;;;;5014927;28;4556;-58
2024/03/03 11:59:33;;;;;;;;;;;;;;;;;;5008575;28;3315;-57
2024/03/03 12:01:59;;;;;;;;;;;;;;;;;;5024494;28;4505;-59
2024/03/03 12:04:24;;;;;;;;;;;;;;;;;;5020503;28;5205;-59
2024/03/03 12:06:49;;;;;;;;;;;;;;;;;;5022249;28;5092;-58
2024/03/03 12:09:17;;;;;;;;;;;;;;;;;;5029507;28;5194;-58
2024/03/03 12:11:42;;;;;;;;;;;;;;;;;;5042569;28;3680;-58
2024/03/03 12:14:07;;;;;;;;;;;;;;;;;;5044896;28;5099;-59
2024/03/03 12:16:33;;;;;;;;;;;;;;;;;;5042503;28;5104;-62
2024/03/03 12:18:58;;;;;;;;;;;;;;;;;;5040904;28;5299;-59
2024/03/03 12:21:23;;;;;;;;;;;;;;;;;;5055212;28;4992;-59
2024/03/03 12:23:49;;;;;;;;;;;;;;;;;;5067656;28;3327;-60
2024/03/03 12:26:14;;;;;;;;;;;;;;;;;;5054649;28;5060;-60
2024/03/03 12:28:40;;;;;;;;;;;;;;;;;;5048072;28;5282;-59
2024/03/03 12:31:05;;;;;;;;;;;;;;;;;;5068856;28;4890;-59
2024/03/03 12:33:30;;;;;;;;;;;;;;;;;;5056405;28;4822;-59
2024/03/03 12:35:56;;;;;;;;;;;;;;;;;;5054527;28;5225;-59
2024/03/03 12:38:21;;;;;;;;;;;;;;;;;;5051551;28;3302;-60
2024/03/03 12:40:47;;;;;;;;;;;;;;;;;;5052353;28;5006;-59
2024/03/03 12:43:15;;;;;;;;;;;;;;;;;;5046081;28;5091;-60
2024/03/03 12:45:44;;;;;;;;;;;;;;;;;;5046252;28;4974;-59
2024/03/03 12:48:09;;;;;;;;;;;;;;;;;;5060549;28;5111;-59
2024/03/03 12:50:34;;;;;;;;;;;;;;;;;;5059973;28;1189;-58
2024/03/03 12:53:00;;;;;;;;;;;;;;;;;;5054505;28;5033;-60
2024/03/03 12:55:28;;;;;;;;;;;;;;;;;;5066516;28;5086;-58
2024/03/03 12:57:54;;;;;;;;;;;;;;;;;;5056787;28;4955;-61
2024/03/03 13:00:19;;;;;;;;;;;;;;;;;;5033431;28;5100;-61
2024/03/03 13:02:44;;;;;;;;;;;;;;;;;;5057345;28;3286;-60
2024/03/03 13:05:13;;;;;;;;;;;;;;;;;;5046183;28;4394;-60
2024/03/03 13:07:48;;;;;;;;;;;;;;;;;;5050047;28;4683;-60
2024/03/03 13:10:17;;;;;;;;;;;;;;;;;;5015282;28;5315;-60
2024/03/03 13:12:43;;;;;;;;;;;;;;;;;;5026525;28;5112;-61
2024/03/03 13:15:09;;;;;;;;;;;;;;;;;;5035727;28;5116;-60
2024/03/03 13:17:35;;;;;;;;;;;;;;;;;;5043248;28;3348;-60
2024/03/03 13:20:00;;;;;;;;;;;;;;;;;;5033399;28;4972;-60
2024/03/03 13:22:25;;;;;;;;;;;;;;;;;;5030383;28;4641;-60
2024/03/03 13:24:52;;;;;;;;;;;;;;;;;;5033282;28;5252;-60
2024/03/03 13:27:17;;;;;;;;;;;;;;;;;;5033787;28;5083;-60
2024/03/03 13:29:43;;;;;;;;;;;;;;;;;;5049450;28;3371;-60
2024/03/03 13:32:08;;;;;;;;;;;;;;;;;;5039589;28;5140;-60
2024/03/03 13:34:34;;;;;;;;;;;;;;;;;;5021731;28;4630;-59
2024/03/03 13:37:00;;;;;;;;;;;;;;;;;;5025947;28;5245;-59
2024/03/03 13:39:25;;;;;;;;;;;;;;;;;;5028304;28;4537;-59
2024/03/03 13:41:51;;;;;;;;;;;;;;;;;;5025861;28;3751;-59
2024/03/03 13:44:17;;;;;;;;;;;;;;;;;;5017916;28;5096;-60
2024/03/03 13:46:43;;;;;;;;;;;;;;;;;;5021727;28;5087;-61
2024/03/03 13:49:08;;;;;;;;;;;;;;;;;;5026331;28;5111;-61
2024/03/03 13:51:33;;;;;;;;;;;;;;;;;;5026549;28;5165;-62
2024/03/03 13:53:59;;;;;;;;;;;;;;;;;;5014831;28;5142;-61
2024/03/03 13:56:24;;;;;;;;;;;;;;;;;;5020180;28;3318;-61
2024/03/03 13:58:50;;;;;;;;;;;;;;;;;;5027765;28;5192;-61
2024/03/03 14:01:16;;;;;;;;;;;;;;;;;;5005389;28;5156;-61
2024/03/03 14:03:41;;;;;;;;;;;;;;;;;;5027475;28;4512;-61
2024/03/03 14:06:06;;;;;;;;;;;;;;;;;;4992807;28;1261063;-61
2024/03/03 14:08:32;;;;;;;;;;;;;;;;;;5057327;28;1160;-61
2024/03/03 14:10:57;;;;;;;;;;;;;;;;;;5037733;28;5074;-62
2024/03/03 14:13:23;;;;;;;;;;;;;;;;;;5045009;28;4693;-61
2024/03/03 14:15:48;;;;;;;;;;;;;;;;;;5047797;28;5177;-61
2024/03/03 14:18:13;;;;;;;;;;;;;;;;;;5050006;28;5433;-61
2024/03/03 14:20:39;;;;;;;;;;;;;;;;;;5055396;28;3450;-62
2024/03/03 14:23:04;;;;;;;;;;;;;;;;;;5051967;28;5352;-61
2024/03/03 14:25:29;;;;;;;;;;;;;;;;;;5055815;28;6073;-61
2024/03/03 14:27:55;;;;;;;;;;;;;;;;;;5049691;28;5044;-61
2024/03/03 14:30:20;;;;;;;;;;;;;;;;;;5069903;28;4552;-61
2024/03/03 14:32:45;;;;;;;;;;;;;;;;;;5052772;28;1271;-62
2024/03/03 14:35:11;;;;;;;;;;;;;;;;;;5055655;28;5222;-61
2024/03/03 14:37:36;;;;;;;;;;;;;;;;;;5051816;28;4477;-61
2024/03/03 14:40:02;;;;;;;;;;;;;;;;;;5054554;28;5652;-61
2024/03/03 14:42:28;;;;;;;;;;;;;;;;;;5044472;28;5174;-61
2024/03/03 14:44:53;;;;;;;;;;;;;;;;;;5050691;28;4656;-58
2024/03/03 14:47:18;;;;;;;;;;;;;;;;;;5049761;28;1089;-61
2024/03/03 14:49:44;;;;;;;;;;;;;;;;;;5047154;28;5009;-61
2024/03/03 14:52:09;;;;;;;;;;;;;;;;;;5047996;28;5053;-61
2024/03/03 14:54:34;;;;;;;;;;;;;;;;;;5053458;28;4969;-61
2024/03/03 14:57:00;;;;;;;;;;;;;;;;;;5049761;28;5139;-61
2024/03/03 14:59:25;;;;;;;;;;;;;;;;;;5072663;28;1076;-61
2024/03/03 15:01:50;;;;;;;;;;;;;;;;;;5046449;28;4999;-61
2024/03/03 15:04:16;;;;;;;;;;;;;;;;;;5052590;28;5110;-61
2024/03/03 15:06:41;;;;;;;;;;;;;;;;;;5036573;28;5034;-61
2024/03/03 15:09:06;;;;;;;;;;;;;;;;;;5053591;28;5369;-61
2024/03/03 15:11:32;;;;;;;;;;;;;;;;;;5048239;28;3275;-60
2024/03/03 15:13:58;;;;;;;;;;;;;;;;;;5054202;28;5147;-61
2024/03/03 15:16:24;;;;;;;;;;;;;;;;;;5058595;28;5058;-61
2024/03/03 15:18:49;;;;;;;;;;;;;;;;;;5055996;28;5289;-60
2024/03/03 15:21:14;;;;;;;;;;;;;;;;;;5052573;28;5209;-60
2024/03/03 15:23:39;;;;;;;;;;;;;;;;;;5051372;28;3291;-60
2024/03/03 15:26:05;;;;;;;;;;;;;;;;;;5051551;28;5184;-60
2024/03/03 15:28:30;;;;;;;;;;;;;;;;;;5052636;28;5026;-60
2024/03/03 15:30:56;;;;;;;;;;;;;;;;;;5051095;28;4842;-60
2024/03/03 15:33:22;;;;;;;;;;;;;;;;;;5048988;28;5097;-60
2024/03/03 15:35:48;;;;;;;;;;;;;;;;;;5038423;28;1958;-61
2024/03/03 15:38:13;;;;;;;;;;;;;;;;;;5042052;28;5025;-60
2024/03/03 15:40:39;;;;;;;;;;;;;;;;;;5059438;28;5175;-61
2024/03/03 15:43:04;;;;;;;;;;;;;;;;;;5037952;28;5220;-61
2024/03/03 15:45:29;;;;;;;;;;;;;;;;;;5041587;28;4538;-59
2024/03/03 15:47:55;;;;;;;;;;;;;;;;;;5043962;28;5109;-59
2024/03/03 15:50:20;;;;;;;;;;;;;;;;;;5049936;28;2552;-60
2024/03/03 15:52:46;;;;;;;;;;;;;;;;;;5056707;28;5126;-61
2024/03/03 15:55:11;;;;;;;;;;;;;;;;;;5037948;28;5103;-61
2024/03/03 15:57:36;;;;;;;;;;;;;;;;;;5057487;28;4580;-63
2024/03/03 16:00:05;;;;;;;;;;;;;;;;;;5072512;28;4480;-67
2024/03/03 16:02:31;;;;;;;;;;;;;;;;;;5053339;28;3649;-63
2024/03/03 16:04:56;;;;;;;;;;;;;;;;;;5045753;28;4951;-60
2024/03/03 16:07:22;;;;;;;;;;;;;;;;;;5041092;28;4545;-60
2024/03/03 16:09:50;;;;;;;;;;;;;;;;;;5059703;28;5000;-60
2024/03/03 16:12:15;;;;;;;;;;;;;;;;;;5049017;28;4767;-60
2024/03/03 16:14:41;;;;;;;;;;;;;;;;;;5047398;28;1202;-61
2024/03/03 16:17:06;;;;;;;;;;;;;;;;;;5050209;28;5095;-61
2024/03/03 16:19:31;;;;;;;;;;;;;;;;;;5060816;28;4952;-61
2024/03/03 16:21:57;;;;;;;;;;;;;;;;;;5048694;28;4675;-61
2024/03/03 16:24:22;;;;;;;;;;;;;;;;;;5051069;28;5842;-61
2024/03/03 16:26:48;;;;;;;;;;;;;;;;;;5031235;28;1204;-61
2024/03/03 16:29:13;;;;;;;;;;;;;;;;;;5047915;28;4988;-61
2024/03/03 16:31:38;;;;;;;;;;;;;;;;;;5053193;28;4926;-61
2024/03/03 16:34:05;;;;;;;;;;;;;;;;;;5054217;28;5174;-61
2024/03/03 16:36:30;;;;;;;;;;;;;;;;;;5055474;28;5100;-61
2024/03/03 16:38:56;;;;;;;;;;;;;;;;;;5050845;28;4518;-60
2024/03/03 16:41:21;;;;;;;;;;;;;;;;;;5057766;28;1148;-61
2024/03/03 16:43:46;;;;;;;;;;;;;;;;;;5048553;28;5099;-61
2024/03/03 16:46:12;;;;;;;;;;;;;;;;;;5047289;28;5092;-61
2024/03/03 16:48:37;;;;;;;;;;;;;;;;;;5031375;28;4559;-61
2024/03/03 16:51:02;;;;;;;;;;;;;;;;;;5055299;28;4689;-60
2024/03/03 16:53:29;;;;;;;;;;;;;;;;;;5045461;28;3346;-61
2024/03/03 16:55:55;;;;;;;;;;;;;;;;;;5055478;28;5196;-61